sensor_id;sensor_type;location;lat;lon;timestamp;P1;durP1;ratioP1;P2;durP2;ratioP2
51584;SDS011;37669;50.312;18.670;2022-10-16T00:02:14;33.70;;;21.73;;
51584;SDS011;37669;50.312;18.670;2022-10-16T00:04:41;32.72;;;23.33;;
51584;SDS011;37669;50.312;18.670;2022-10-16T00:07:08;32.38;;;21.77;;
51584;SDS011;37669;50.312;18.670;2022-10-16T00:09:35;32.95;;;22.08;;
51584;SDS011;37669;50.312;18.670;2022-10-16T00:12:02;32.85;;;22.38;;
51584;SDS011;37669;50.312;18.670;2022-10-16T00:14:31;30.27;;;22.70;;
51584;SDS011;37669;50.312;18.670;2022-10-16T00:16:59;30.95;;;22.15;;
51584;SDS011;37669;50.312;18.670;2022-10-16T00:19:27;28.77;;;22.55;;
51584;SDS011;37669;50.312;18.670;2022-10-16T00:21:54;30.52;;;21.05;;
51584;SDS011;37669;50.312;18.670;2022-10-16T00:24:21;28.33;;;21.55;;
51584;SDS011;37669;50.312;18.670;2022-10-16T00:26:49;30.58;;;22.15;;
51584;SDS011;37669;50.312;18.670;2022-10-16T00:29:17;29.63;;;22.70;;
51584;SDS011;37669;50.312;18.670;2022-10-16T00:31:44;29.23;;;22.95;;
51584;SDS011;37669;50.312;18.670;2022-10-16T00:34:11;30.05;;;22.05;;
51584;SDS011;37669;50.312;18.670;2022-10-16T00:36:39;40.75;;;23.45;;
51584;SDS011;37669;50.312;18.670;2022-10-16T00:39:06;30.75;;;23.95;;
51584;SDS011;37669;50.312;18.670;2022-10-16T00:41:34;41.47;;;24.25;;
51584;SDS011;37669;50.312;18.670;2022-10-16T00:44:01;31.67;;;23.40;;
51584;SDS011;37669;50.312;18.670;2022-10-16T00:46:31;31.55;;;23.25;;
51584;SDS011;37669;50.312;18.670;2022-10-16T00:49:05;31.58;;;24.10;;
51584;SDS011;37669;50.312;18.670;2022-10-16T00:51:37;31.55;;;23.83;;
51584;SDS011;37669;50.312;18.670;2022-10-16T00:54:08;38.60;;;25.33;;
51584;SDS011;37669;50.312;18.670;2022-10-16T00:56:38;35.60;;;24.33;;
51584;SDS011;37669;50.312;18.670;2022-10-16T00:59:06;41.15;;;24.70;;
51584;SDS011;37669;50.312;18.670;2022-10-16T01:01:40;31.27;;;23.70;;
51584;SDS011;37669;50.312;18.670;2022-10-16T01:04:07;36.60;;;24.25;;
51584;SDS011;37669;50.312;18.670;2022-10-16T01:06:36;36.60;;;25.05;;
51584;SDS011;37669;50.312;18.670;2022-10-16T01:09:11;38.90;;;23.48;;
51584;SDS011;37669;50.312;18.670;2022-10-16T01:11:44;36.63;;;25.40;;
51584;SDS011;37669;50.312;18.670;2022-10-16T01:14:21;40.30;;;25.33;;
51584;SDS011;37669;50.312;18.670;2022-10-16T01:16:55;35.80;;;24.90;;
51584;SDS011;37669;50.312;18.670;2022-10-16T01:19:38;39.42;;;25.52;;
51584;SDS011;37669;50.312;18.670;2022-10-16T01:22:18;37.45;;;25.10;;
51584;SDS011;37669;50.312;18.670;2022-10-16T01:24:49;36.80;;;25.15;;
51584;SDS011;37669;50.312;18.670;2022-10-16T01:27:18;36.28;;;25.05;;
51584;SDS011;37669;50.312;18.670;2022-10-16T01:29:49;33.85;;;25.95;;
51584;SDS011;37669;50.312;18.670;2022-10-16T01:32:26;39.20;;;25.40;;
51584;SDS011;37669;50.312;18.670;2022-10-16T01:37:31;32.17;;;24.63;;
51584;SDS011;37669;50.312;18.670;2022-10-16T01:40:05;42.22;;;25.42;;
51584;SDS011;37669;50.312;18.670;2022-10-16T01:42:37;34.78;;;25.98;;
51584;SDS011;37669;50.312;18.670;2022-10-16T01:45:08;34.92;;;26.23;;
51584;SDS011;37669;50.312;18.670;2022-10-16T01:47:39;39.75;;;25.42;;
51584;SDS011;37669;50.312;18.670;2022-10-16T01:50:09;37.03;;;26.60;;
51584;SDS011;37669;50.312;18.670;2022-10-16T01:52:37;39.60;;;25.95;;
51584;SDS011;37669;50.312;18.670;2022-10-16T01:55:08;37.80;;;25.50;;
51584;SDS011;37669;50.312;18.670;2022-10-16T01:57:40;34.45;;;25.13;;
51584;SDS011;37669;50.312;18.670;2022-10-16T02:00:13;36.65;;;25.40;;
51584;SDS011;37669;50.312;18.670;2022-10-16T02:02:45;45.30;;;27.77;;
51584;SDS011;37669;50.312;18.670;2022-10-16T02:05:17;38.42;;;26.25;;
51584;SDS011;37669;50.312;18.670;2022-10-16T02:07:48;34.78;;;25.33;;
51584;SDS011;37669;50.312;18.670;2022-10-16T02:10:16;44.22;;;25.90;;
51584;SDS011;37669;50.312;18.670;2022-10-16T02:12:46;42.63;;;25.60;;
51584;SDS011;37669;50.312;18.670;2022-10-16T02:15:17;42.35;;;25.75;;
51584;SDS011;37669;50.312;18.670;2022-10-16T02:17:44;47.67;;;26.70;;
51584;SDS011;37669;50.312;18.670;2022-10-16T02:20:11;44.47;;;26.60;;
51584;SDS011;37669;50.312;18.670;2022-10-16T02:22:39;34.50;;;25.77;;
51584;SDS011;37669;50.312;18.670;2022-10-16T02:25:10;39.53;;;26.63;;
51584;SDS011;37669;50.312;18.670;2022-10-16T03:55:10;44.60;;;27.50;;
51584;SDS011;37669;50.312;18.670;2022-10-16T03:57:37;44.63;;;25.83;;
51584;SDS011;37669;50.312;18.670;2022-10-16T04:00:05;46.72;;;30.58;;
51584;SDS011;37669;50.312;18.670;2022-10-16T04:02:32;32.40;;;24.98;;
51584;SDS011;37669;50.312;18.670;2022-10-16T04:04:59;44.22;;;25.98;;
51584;SDS011;37669;50.312;18.670;2022-10-16T04:07:26;35.75;;;25.25;;
51584;SDS011;37669;50.312;18.670;2022-10-16T04:09:54;44.45;;;26.52;;
51584;SDS011;37669;50.312;18.670;2022-10-16T04:12:23;40.70;;;26.48;;
51584;SDS011;37669;50.312;18.670;2022-10-16T04:14:50;40.20;;;26.20;;
51584;SDS011;37669;50.312;18.670;2022-10-16T04:17:18;38.67;;;25.40;;
51584;SDS011;37669;50.312;18.670;2022-10-16T04:19:45;42.58;;;25.38;;
51584;SDS011;37669;50.312;18.670;2022-10-16T04:22:12;39.97;;;25.45;;
51584;SDS011;37669;50.312;18.670;2022-10-16T04:24:39;35.83;;;23.52;;
51584;SDS011;37669;50.312;18.670;2022-10-16T04:27:06;40.95;;;25.45;;
51584;SDS011;37669;50.312;18.670;2022-10-16T04:32:01;42.33;;;25.88;;
51584;SDS011;37669;50.312;18.670;2022-10-16T04:34:28;35.28;;;24.60;;
51584;SDS011;37669;50.312;18.670;2022-10-16T04:36:55;35.20;;;25.48;;
51584;SDS011;37669;50.312;18.670;2022-10-16T04:39:23;36.50;;;24.90;;
51584;SDS011;37669;50.312;18.670;2022-10-16T04:41:50;40.55;;;25.55;;
51584;SDS011;37669;50.312;18.670;2022-10-16T04:44:16;39.83;;;26.60;;
51584;SDS011;37669;50.312;18.670;2022-10-16T04:46:45;43.72;;;27.98;;
51584;SDS011;37669;50.312;18.670;2022-10-16T04:49:12;38.42;;;26.55;;
51584;SDS011;37669;50.312;18.670;2022-10-16T04:51:39;37.85;;;25.48;;
51584;SDS011;37669;50.312;18.670;2022-10-16T04:54:06;42.83;;;27.40;;
51584;SDS011;37669;50.312;18.670;2022-10-16T04:56:34;39.15;;;26.65;;
51584;SDS011;37669;50.312;18.670;2022-10-16T04:59:08;49.53;;;27.80;;
51584;SDS011;37669;50.312;18.670;2022-10-16T05:01:35;50.30;;;28.00;;
51584;SDS011;37669;50.312;18.670;2022-10-16T05:04:04;41.17;;;29.38;;
51584;SDS011;37669;50.312;18.670;2022-10-16T05:06:31;34.70;;;26.95;;
51584;SDS011;37669;50.312;18.670;2022-10-16T05:08:58;45.28;;;29.42;;
51584;SDS011;37669;50.312;18.670;2022-10-16T05:11:25;39.05;;;30.25;;
51584;SDS011;37669;50.312;18.670;2022-10-16T05:13:52;43.88;;;30.83;;
51584;SDS011;37669;50.312;18.670;2022-10-16T05:16:19;45.53;;;30.48;;
51584;SDS011;37669;50.312;18.670;2022-10-16T05:18:46;47.65;;;30.02;;
51584;SDS011;37669;50.312;18.670;2022-10-16T05:21:15;44.80;;;30.05;;
51584;SDS011;37669;50.312;18.670;2022-10-16T05:23:42;44.28;;;32.92;;
51584;SDS011;37669;50.312;18.670;2022-10-16T05:26:09;56.88;;;34.72;;
51584;SDS011;37669;50.312;18.670;2022-10-16T05:28:36;54.53;;;33.72;;
51584;SDS011;37669;50.312;18.670;2022-10-16T05:31:04;51.05;;;36.95;;
51584;SDS011;37669;50.312;18.670;2022-10-16T05:33:32;58.05;;;35.65;;
51584;SDS011;37669;50.312;18.670;2022-10-16T05:36:00;56.47;;;35.05;;
51584;SDS011;37669;50.312;18.670;2022-10-16T05:38:29;50.28;;;34.63;;
51584;SDS011;37669;50.312;18.670;2022-10-16T05:40:56;56.60;;;36.08;;
51584;SDS011;37669;50.312;18.670;2022-10-16T05:43:24;51.22;;;35.28;;
51584;SDS011;37669;50.312;18.670;2022-10-16T05:45:55;57.00;;;37.60;;
51584;SDS011;37669;50.312;18.670;2022-10-16T05:48:26;54.45;;;36.05;;
51584;SDS011;37669;50.312;18.670;2022-10-16T05:50:58;53.03;;;37.22;;
51584;SDS011;37669;50.312;18.670;2022-10-16T05:53:34;61.83;;;37.92;;
51584;SDS011;37669;50.312;18.670;2022-10-16T05:58:40;67.07;;;38.80;;
51584;SDS011;37669;50.312;18.670;2022-10-16T06:01:12;53.78;;;40.00;;
51584;SDS011;37669;50.312;18.670;2022-10-16T06:03:46;62.88;;;39.47;;
51584;SDS011;37669;50.312;18.670;2022-10-16T06:06:21;54.35;;;37.53;;
51584;SDS011;37669;50.312;18.670;2022-10-16T06:08:57;69.03;;;39.45;;
51584;SDS011;37669;50.312;18.670;2022-10-16T06:11:26;65.30;;;37.97;;
51584;SDS011;37669;50.312;18.670;2022-10-16T06:13:54;50.35;;;36.78;;
51584;SDS011;37669;50.312;18.670;2022-10-16T06:16:23;56.33;;;38.40;;
51584;SDS011;37669;50.312;18.670;2022-10-16T06:18:50;66.25;;;38.80;;
51584;SDS011;37669;50.312;18.670;2022-10-16T06:21:18;64.57;;;38.08;;
51584;SDS011;37669;50.312;18.670;2022-10-16T06:23:47;52.60;;;37.70;;
51584;SDS011;37669;50.312;18.670;2022-10-16T06:26:16;51.13;;;37.00;;
51584;SDS011;37669;50.312;18.670;2022-10-16T06:28:45;58.00;;;37.42;;
51584;SDS011;37669;50.312;18.670;2022-10-16T06:31:13;51.80;;;36.97;;
51584;SDS011;37669;50.312;18.670;2022-10-16T06:33:40;51.53;;;36.15;;
51584;SDS011;37669;50.312;18.670;2022-10-16T06:36:08;52.90;;;35.60;;
51584;SDS011;37669;50.312;18.670;2022-10-16T06:38:37;49.13;;;34.85;;
51584;SDS011;37669;50.312;18.670;2022-10-16T06:41:05;53.28;;;36.20;;
51584;SDS011;37669;50.312;18.670;2022-10-16T06:43:34;50.92;;;34.60;;
51584;SDS011;37669;50.312;18.670;2022-10-16T06:46:02;52.72;;;34.70;;
51584;SDS011;37669;50.312;18.670;2022-10-16T06:48:30;52.50;;;34.38;;
51584;SDS011;37669;50.312;18.670;2022-10-16T06:50:58;66.93;;;31.63;;
51584;SDS011;37669;50.312;18.670;2022-10-16T06:53:27;49.20;;;33.03;;
51584;SDS011;37669;50.312;18.670;2022-10-16T06:55:56;56.35;;;32.60;;
51584;SDS011;37669;50.312;18.670;2022-10-16T06:58:23;48.47;;;31.88;;
51584;SDS011;37669;50.312;18.670;2022-10-16T07:00:56;53.58;;;32.25;;
51584;SDS011;37669;50.312;18.670;2022-10-16T07:03:23;46.33;;;30.00;;
51584;SDS011;37669;50.312;18.670;2022-10-16T07:05:50;44.33;;;30.77;;
51584;SDS011;37669;50.312;18.670;2022-10-16T07:08:17;49.00;;;31.98;;
51584;SDS011;37669;50.312;18.670;2022-10-16T07:10:44;49.92;;;30.73;;
51584;SDS011;37669;50.312;18.670;2022-10-16T07:13:11;44.30;;;32.67;;
51584;SDS011;37669;50.312;18.670;2022-10-16T07:15:39;64.85;;;32.05;;
51584;SDS011;37669;50.312;18.670;2022-10-16T07:18:08;47.10;;;28.92;;
51584;SDS011;37669;50.312;18.670;2022-10-16T07:20:35;51.40;;;28.95;;
51584;SDS011;37669;50.312;18.670;2022-10-16T07:23:02;43.92;;;29.98;;
51584;SDS011;37669;50.312;18.670;2022-10-16T07:25:29;44.17;;;28.42;;
51584;SDS011;37669;50.312;18.670;2022-10-16T07:27:56;60.28;;;28.20;;
51584;SDS011;37669;50.312;18.670;2022-10-16T07:32:50;41.80;;;26.27;;
51584;SDS011;37669;50.312;18.670;2022-10-16T07:35:18;43.22;;;26.45;;
51584;SDS011;37669;50.312;18.670;2022-10-16T07:37:46;35.67;;;26.00;;
51584;SDS011;37669;50.312;18.670;2022-10-16T07:40:13;43.17;;;27.77;;
51584;SDS011;37669;50.312;18.670;2022-10-16T07:42:40;38.30;;;25.92;;
51584;SDS011;37669;50.312;18.670;2022-10-16T07:45:07;39.17;;;26.05;;
51584;SDS011;37669;50.312;18.670;2022-10-16T07:47:35;42.42;;;27.55;;
51584;SDS011;37669;50.312;18.670;2022-10-16T07:50:02;50.33;;;31.33;;
51584;SDS011;37669;50.312;18.670;2022-10-16T07:52:31;41.78;;;27.15;;
51584;SDS011;37669;50.312;18.670;2022-10-16T07:54:58;41.97;;;28.08;;
51584;SDS011;37669;50.312;18.670;2022-10-16T07:57:25;45.97;;;25.95;;
51584;SDS011;37669;50.312;18.670;2022-10-16T07:59:52;38.85;;;25.38;;
51584;SDS011;37669;50.312;18.670;2022-10-16T08:02:19;49.42;;;25.75;;
51584;SDS011;37669;50.312;18.670;2022-10-16T08:04:46;45.97;;;24.55;;
51584;SDS011;37669;50.312;18.670;2022-10-16T08:07:15;39.22;;;25.80;;
51584;SDS011;37669;50.312;18.670;2022-10-16T08:09:44;34.70;;;24.25;;
51584;SDS011;37669;50.312;18.670;2022-10-16T08:12:11;46.30;;;26.55;;
51584;SDS011;37669;50.312;18.670;2022-10-16T08:14:38;32.42;;;24.85;;
51584;SDS011;37669;50.312;18.670;2022-10-16T08:17:05;43.28;;;24.88;;
51584;SDS011;37669;50.312;18.670;2022-10-16T08:19:32;43.75;;;23.88;;
51584;SDS011;37669;50.312;18.670;2022-10-16T08:21:59;33.47;;;23.85;;
51584;SDS011;37669;50.312;18.670;2022-10-16T08:24:27;41.05;;;24.52;;
51584;SDS011;37669;50.312;18.670;2022-10-16T08:26:57;35.63;;;23.52;;
51584;SDS011;37669;50.312;18.670;2022-10-16T08:29:24;39.60;;;23.40;;
51584;SDS011;37669;50.312;18.670;2022-10-16T08:31:51;36.30;;;22.80;;
51584;SDS011;37669;50.312;18.670;2022-10-16T08:34:18;34.17;;;22.08;;
51584;SDS011;37669;50.312;18.670;2022-10-16T08:36:45;41.20;;;23.30;;
51584;SDS011;37669;50.312;18.670;2022-10-16T08:39:12;35.88;;;24.48;;
51584;SDS011;37669;50.312;18.670;2022-10-16T08:47:50;42.13;;;23.67;;
51584;SDS011;37669;50.312;18.670;2022-10-16T08:50:25;39.90;;;23.77;;
51584;SDS011;37669;50.312;18.670;2022-10-16T08:52:53;36.10;;;23.20;;
51584;SDS011;37669;50.312;18.670;2022-10-16T08:55:29;39.95;;;23.92;;
51584;SDS011;37669;50.312;18.670;2022-10-16T08:58:01;41.53;;;24.48;;
51584;SDS011;37669;50.312;18.670;2022-10-16T09:00:28;36.35;;;23.45;;
51584;SDS011;37669;50.312;18.670;2022-10-16T09:02:59;37.15;;;23.23;;
51584;SDS011;37669;50.312;18.670;2022-10-16T09:08:36;36.65;;;21.65;;
51584;SDS011;37669;50.312;18.670;2022-10-16T09:11:14;32.58;;;21.20;;
51584;SDS011;37669;50.312;18.670;2022-10-16T09:13:50;51.28;;;22.65;;
51584;SDS011;37669;50.312;18.670;2022-10-16T09:16:23;30.15;;;20.73;;
51584;SDS011;37669;50.312;18.670;2022-10-16T09:18:55;27.63;;;19.08;;
51584;SDS011;37669;50.312;18.670;2022-10-16T09:21:30;26.23;;;18.95;;
51584;SDS011;37669;50.312;18.670;2022-10-16T09:24:07;36.75;;;19.38;;
51584;SDS011;37669;50.312;18.670;2022-10-16T09:29:08;25.50;;;18.37;;
51584;SDS011;37669;50.312;18.670;2022-10-16T09:31:36;33.35;;;18.65;;
51584;SDS011;37669;50.312;18.670;2022-10-16T09:34:03;27.30;;;17.85;;
51584;SDS011;37669;50.312;18.670;2022-10-16T09:36:36;27.33;;;17.33;;
51584;SDS011;37669;50.312;18.670;2022-10-16T09:39:08;30.42;;;17.33;;
51584;SDS011;37669;50.312;18.670;2022-10-16T09:41:38;30.40;;;17.25;;
51584;SDS011;37669;50.312;18.670;2022-10-16T09:44:15;29.23;;;17.30;;
51584;SDS011;37669;50.312;18.670;2022-10-16T09:46:47;30.00;;;18.52;;
51584;SDS011;37669;50.312;18.670;2022-10-16T09:49:21;28.73;;;17.60;;
51584;SDS011;37669;50.312;18.670;2022-10-16T09:51:51;26.00;;;17.52;;
51584;SDS011;37669;50.312;18.670;2022-10-16T09:54:29;30.75;;;17.27;;
51584;SDS011;37669;50.312;18.670;2022-10-16T09:57:04;38.25;;;19.15;;
51584;SDS011;37669;50.312;18.670;2022-10-16T09:59:33;27.08;;;17.98;;
51584;SDS011;37669;50.312;18.670;2022-10-16T10:02:01;28.77;;;17.05;;
51584;SDS011;37669;50.312;18.670;2022-10-16T10:04:37;26.27;;;17.50;;
51584;SDS011;37669;50.312;18.670;2022-10-16T10:07:07;30.73;;;17.10;;
51584;SDS011;37669;50.312;18.670;2022-10-16T10:09:50;25.10;;;17.95;;
51584;SDS011;37669;50.312;18.670;2022-10-16T10:12:18;42.33;;;18.60;;
51584;SDS011;37669;50.312;18.670;2022-10-16T10:14:49;37.35;;;18.17;;
51584;SDS011;37669;50.312;18.670;2022-10-16T10:17:18;33.10;;;18.30;;
51584;SDS011;37669;50.312;18.670;2022-10-16T10:19:51;28.73;;;17.13;;
51584;SDS011;37669;50.312;18.670;2022-10-16T10:22:22;24.33;;;17.08;;
51584;SDS011;37669;50.312;18.670;2022-10-16T10:24:57;29.98;;;17.92;;
51584;SDS011;37669;50.312;18.670;2022-10-16T10:27:37;23.50;;;18.08;;
51584;SDS011;37669;50.312;18.670;2022-10-16T10:30:10;29.08;;;18.45;;
51584;SDS011;37669;50.312;18.670;2022-10-16T10:32:45;34.25;;;17.85;;
51584;SDS011;37669;50.312;18.670;2022-10-16T10:35:27;33.95;;;18.95;;
51584;SDS011;37669;50.312;18.670;2022-10-16T10:38:02;30.67;;;17.55;;
51584;SDS011;37669;50.312;18.670;2022-10-16T10:40:45;26.20;;;17.23;;
51584;SDS011;37669;50.312;18.670;2022-10-16T10:43:25;25.50;;;18.13;;
51584;SDS011;37669;50.312;18.670;2022-10-16T10:46:05;26.85;;;18.27;;
51584;SDS011;37669;50.312;18.670;2022-10-16T10:48:47;24.45;;;17.70;;
51584;SDS011;37669;50.312;18.670;2022-10-16T10:51:31;36.35;;;17.83;;
51584;SDS011;37669;50.312;18.670;2022-10-16T10:54:10;31.27;;;19.77;;
51584;SDS011;37669;50.312;18.670;2022-10-16T10:56:46;40.13;;;22.38;;
51584;SDS011;37669;50.312;18.670;2022-10-16T11:02:21;29.00;;;18.08;;
51584;SDS011;37669;50.312;18.670;2022-10-16T11:05:07;31.87;;;17.60;;
51584;SDS011;37669;50.312;18.670;2022-10-16T11:08:06;31.77;;;18.50;;
51584;SDS011;37669;50.312;18.670;2022-10-16T11:10:40;28.85;;;18.60;;
51584;SDS011;37669;50.312;18.670;2022-10-16T11:13:16;25.95;;;16.65;;
51584;SDS011;37669;50.312;18.670;2022-10-16T11:15:50;29.30;;;16.98;;
51584;SDS011;37669;50.312;18.670;2022-10-16T11:18:22;36.05;;;18.58;;
51584;SDS011;37669;50.312;18.670;2022-10-16T11:20:57;27.50;;;17.33;;
51584;SDS011;37669;50.312;18.670;2022-10-16T11:23:30;31.70;;;17.85;;
51584;SDS011;37669;50.312;18.670;2022-10-16T11:26:02;26.38;;;16.98;;
51584;SDS011;37669;50.312;18.670;2022-10-16T11:28:35;32.58;;;16.20;;
51584;SDS011;37669;50.312;18.670;2022-10-16T11:31:08;27.27;;;16.90;;
51584;SDS011;37669;50.312;18.670;2022-10-16T11:33:42;34.53;;;16.75;;
51584;SDS011;37669;50.312;18.670;2022-10-16T11:36:14;28.30;;;15.65;;
51584;SDS011;37669;50.312;18.670;2022-10-16T11:38:48;28.02;;;16.77;;
51584;SDS011;37669;50.312;18.670;2022-10-16T11:41:22;37.53;;;16.65;;
51584;SDS011;37669;50.312;18.670;2022-10-16T11:44:05;30.75;;;15.30;;
51584;SDS011;37669;50.312;18.670;2022-10-16T11:46:40;36.28;;;16.35;;
51584;SDS011;37669;50.312;18.670;2022-10-16T11:49:14;23.55;;;14.80;;
51584;SDS011;37669;50.312;18.670;2022-10-16T11:51:45;33.22;;;15.40;;
51584;SDS011;37669;50.312;18.670;2022-10-16T11:54:21;28.25;;;15.32;;
51584;SDS011;37669;50.312;18.670;2022-10-16T11:56:57;26.27;;;16.05;;
51584;SDS011;37669;50.312;18.670;2022-10-16T11:59:30;24.08;;;14.70;;
51584;SDS011;37669;50.312;18.670;2022-10-16T12:05:21;21.75;;;14.48;;
51584;SDS011;37669;50.312;18.670;2022-10-16T12:08:02;30.13;;;15.02;;
51584;SDS011;37669;50.312;18.670;2022-10-16T12:10:36;30.30;;;15.30;;
51584;SDS011;37669;50.312;18.670;2022-10-16T12:13:05;22.45;;;14.43;;
51584;SDS011;37669;50.312;18.670;2022-10-16T12:16:04;25.65;;;15.00;;
51584;SDS011;37669;50.312;18.670;2022-10-16T12:18:46;20.90;;;14.32;;
51584;SDS011;37669;50.312;18.670;2022-10-16T12:21:16;20.67;;;14.73;;
51584;SDS011;37669;50.312;18.670;2022-10-16T12:23:48;27.45;;;15.25;;
51584;SDS011;37669;50.312;18.670;2022-10-16T12:26:24;27.85;;;14.93;;
51584;SDS011;37669;50.312;18.670;2022-10-16T12:28:53;21.45;;;13.93;;
51584;SDS011;37669;50.312;18.670;2022-10-16T12:31:21;30.05;;;13.70;;
51584;SDS011;37669;50.312;18.670;2022-10-16T12:33:55;26.02;;;14.23;;
51584;SDS011;37669;50.312;18.670;2022-10-16T12:36:30;30.77;;;15.40;;
51584;SDS011;37669;50.312;18.670;2022-10-16T12:38:59;22.73;;;15.20;;
51584;SDS011;37669;50.312;18.670;2022-10-16T12:41:28;33.47;;;16.23;;
51584;SDS011;37669;50.312;18.670;2022-10-16T12:43:56;25.92;;;15.80;;
51584;SDS011;37669;50.312;18.670;2022-10-16T12:46:36;24.58;;;14.80;;
51584;SDS011;37669;50.312;18.670;2022-10-16T12:49:20;28.77;;;14.90;;
51584;SDS011;37669;50.312;18.670;2022-10-16T12:51:52;27.23;;;14.82;;
51584;SDS011;37669;50.312;18.670;2022-10-16T12:54:20;27.77;;;15.65;;
51584;SDS011;37669;50.312;18.670;2022-10-16T12:56:55;21.42;;;15.52;;
51584;SDS011;37669;50.312;18.670;2022-10-16T12:59:36;33.08;;;14.55;;
51584;SDS011;37669;50.312;18.670;2022-10-16T13:22:15;26.80;;;15.77;;
51584;SDS011;37669;50.312;18.670;2022-10-16T13:24:56;25.55;;;16.13;;
51584;SDS011;37669;50.312;18.670;2022-10-16T13:27:41;34.58;;;17.40;;
51584;SDS011;37669;50.312;18.670;2022-10-16T13:30:18;24.42;;;15.95;;
51584;SDS011;37669;50.312;18.670;2022-10-16T13:32:47;41.83;;;16.73;;
51584;SDS011;37669;50.312;18.670;2022-10-16T13:35:20;32.85;;;17.05;;
51584;SDS011;37669;50.312;18.670;2022-10-16T13:37:51;24.60;;;16.63;;
51584;SDS011;37669;50.312;18.670;2022-10-16T13:40:29;22.42;;;16.63;;
51584;SDS011;37669;50.312;18.670;2022-10-16T13:42:56;32.33;;;16.80;;
51584;SDS011;37669;50.312;18.670;2022-10-16T13:45:26;28.15;;;16.13;;
51584;SDS011;37669;50.312;18.670;2022-10-16T13:48:01;20.08;;;16.42;;
51584;SDS011;37669;50.312;18.670;2022-10-16T13:50:28;24.98;;;16.73;;
51584;SDS011;37669;50.312;18.670;2022-10-16T13:53:04;23.35;;;16.27;;
51584;SDS011;37669;50.312;18.670;2022-10-16T13:55:31;34.80;;;16.88;;
51584;SDS011;37669;50.312;18.670;2022-10-16T13:58:06;25.75;;;16.45;;
51584;SDS011;37669;50.312;18.670;2022-10-16T14:00:35;24.30;;;16.50;;
51584;SDS011;37669;50.312;18.670;2022-10-16T14:03:03;32.45;;;17.27;;
51584;SDS011;37669;50.312;18.670;2022-10-16T14:05:32;20.83;;;17.10;;
51584;SDS011;37669;50.312;18.670;2022-10-16T14:07:59;33.38;;;18.30;;
51584;SDS011;37669;50.312;18.670;2022-10-16T14:10:29;30.23;;;16.90;;
51584;SDS011;37669;50.312;18.670;2022-10-16T14:12:59;35.13;;;18.00;;
51584;SDS011;37669;50.312;18.670;2022-10-16T14:15:29;35.40;;;18.80;;
51584;SDS011;37669;50.312;18.670;2022-10-16T14:17:57;38.60;;;18.17;;
51584;SDS011;37669;50.312;18.670;2022-10-16T14:20:26;29.70;;;17.45;;
51584;SDS011;37669;50.312;18.670;2022-10-16T14:23:00;25.42;;;16.90;;
51584;SDS011;37669;50.312;18.670;2022-10-16T14:25:31;25.67;;;17.25;;
51584;SDS011;37669;50.312;18.670;2022-10-16T14:28:02;43.90;;;19.85;;
51584;SDS011;37669;50.312;18.670;2022-10-16T14:30:32;22.23;;;17.77;;
51584;SDS011;37669;50.312;18.670;2022-10-16T14:33:01;30.15;;;17.63;;
51584;SDS011;37669;50.312;18.670;2022-10-16T14:35:31;30.52;;;17.27;;
51584;SDS011;37669;50.312;18.670;2022-10-16T14:38:00;22.60;;;16.20;;
51584;SDS011;37669;50.312;18.670;2022-10-16T14:40:33;23.63;;;16.58;;
51584;SDS011;37669;50.312;18.670;2022-10-16T14:43:02;35.83;;;17.67;;
51584;SDS011;37669;50.312;18.670;2022-10-16T14:45:31;27.48;;;17.90;;
51584;SDS011;37669;50.312;18.670;2022-10-16T14:48:01;24.52;;;17.80;;
51584;SDS011;37669;50.312;18.670;2022-10-16T14:50:32;36.40;;;19.20;;
51584;SDS011;37669;50.312;18.670;2022-10-16T14:52:59;33.92;;;17.70;;
51584;SDS011;37669;50.312;18.670;2022-10-16T14:55:26;22.75;;;18.10;;
51584;SDS011;37669;50.312;18.670;2022-10-16T14:57:55;22.67;;;17.70;;
51584;SDS011;37669;50.312;18.670;2022-10-16T15:00:22;23.30;;;17.10;;
51584;SDS011;37669;50.312;18.670;2022-10-16T15:02:50;52.10;;;18.92;;
51584;SDS011;37669;50.312;18.670;2022-10-16T15:05:18;22.25;;;18.33;;
51584;SDS011;37669;50.312;18.670;2022-10-16T15:07:47;26.75;;;18.83;;
51584;SDS011;37669;50.312;18.670;2022-10-16T15:10:15;29.30;;;19.17;;
51584;SDS011;37669;50.312;18.670;2022-10-16T15:12:44;22.25;;;17.65;;
51584;SDS011;37669;50.312;18.670;2022-10-16T15:15:27;33.20;;;18.80;;
51584;SDS011;37669;50.312;18.670;2022-10-16T15:18:01;35.33;;;20.10;;
51584;SDS011;37669;50.312;18.670;2022-10-16T15:20:28;28.67;;;19.92;;
51584;SDS011;37669;50.312;18.670;2022-10-16T15:22:58;31.58;;;20.38;;
51584;SDS011;37669;50.312;18.670;2022-10-16T15:25:35;29.92;;;21.88;;
51584;SDS011;37669;50.312;18.670;2022-10-16T15:28:05;38.63;;;23.30;;
51584;SDS011;37669;50.312;18.670;2022-10-16T15:30:34;41.22;;;24.33;;
51584;SDS011;37669;50.312;18.670;2022-10-16T15:33:03;40.53;;;22.88;;
51584;SDS011;37669;50.312;18.670;2022-10-16T15:35:31;32.92;;;23.35;;
51584;SDS011;37669;50.312;18.670;2022-10-16T15:37:58;35.42;;;22.58;;
51584;SDS011;37669;50.312;18.670;2022-10-16T15:40:25;34.13;;;21.23;;
51584;SDS011;37669;50.312;18.670;2022-10-16T15:42:52;29.00;;;20.65;;
51584;SDS011;37669;50.312;18.670;2022-10-16T15:45:20;25.75;;;19.88;;
51584;SDS011;37669;50.312;18.670;2022-10-16T15:47:48;30.52;;;20.33;;
51584;SDS011;37669;50.312;18.670;2022-10-16T15:50:15;30.33;;;21.10;;
51584;SDS011;37669;50.312;18.670;2022-10-16T15:52:42;32.50;;;21.35;;
51584;SDS011;37669;50.312;18.670;2022-10-16T15:55:10;39.20;;;22.90;;
51584;SDS011;37669;50.312;18.670;2022-10-16T15:57:39;41.65;;;24.10;;
51584;SDS011;37669;50.312;18.670;2022-10-16T16:00:08;39.67;;;23.50;;
51584;SDS011;37669;50.312;18.670;2022-10-16T16:02:37;31.27;;;23.70;;
51584;SDS011;37669;50.312;18.670;2022-10-16T16:05:06;32.50;;;24.58;;
51584;SDS011;37669;50.312;18.670;2022-10-16T16:07:34;34.10;;;23.67;;
51584;SDS011;37669;50.312;18.670;2022-10-16T16:10:02;48.67;;;23.70;;
51584;SDS011;37669;50.312;18.670;2022-10-16T16:12:31;39.00;;;24.58;;
51584;SDS011;37669;50.312;18.670;2022-10-16T16:14:58;34.35;;;24.17;;
51584;SDS011;37669;50.312;18.670;2022-10-16T16:17:26;38.08;;;23.95;;
51584;SDS011;37669;50.312;18.670;2022-10-16T16:19:53;30.65;;;23.27;;
51584;SDS011;37669;50.312;18.670;2022-10-16T16:22:21;43.13;;;25.38;;
51584;SDS011;37669;50.312;18.670;2022-10-16T16:24:49;38.53;;;25.40;;
51584;SDS011;37669;50.312;18.670;2022-10-16T16:27:16;38.63;;;27.33;;
51584;SDS011;37669;50.312;18.670;2022-10-16T16:29:44;39.20;;;26.90;;
51584;SDS011;37669;50.312;18.670;2022-10-16T16:32:12;40.53;;;28.40;;
51584;SDS011;37669;50.312;18.670;2022-10-16T16:34:39;45.50;;;26.65;;
51584;SDS011;37669;50.312;18.670;2022-10-16T16:37:06;46.03;;;29.20;;
51584;SDS011;37669;50.312;18.670;2022-10-16T16:39:34;44.58;;;31.30;;
51584;SDS011;37669;50.312;18.670;2022-10-16T16:42:02;51.97;;;32.97;;
51584;SDS011;37669;50.312;18.670;2022-10-16T16:44:31;50.50;;;33.72;;